Logo AVAMET
Benvolgut visitant, si us plau, ingressa Recuperar contrasenya

Peníscola Gran Hotel Peñiscola

Dades diàries. Acumulats / Últims 30 dies disponibles

Data Temperatura (°C) Humitat rel. (%) Pressió rel. (hPa) Vent (km/h) Precipitació
Mínima Mitjana Màxima Amplitud
tèrmica
Mínima Mitjana Màxima Mínima Mitjana Màxima Predom. Mitjana Ràfega
màxima
Total
(mm)
Índex-n
Mínima Mitjana Màxima Mínima Mitjana Màxima n
0 a 1
P0 max
mm 5'
Dades mensuals acumulades fins l'últim dia disponible
01/2020 2,1 5,9 9,2 9,7 11,1 14,6 21,2 19,1 0 81 94 1.014 1.024 1.032   0,6 72,4 73,2
Dades anuals acumulades fins l'últim dia disponible
2020 2,1 5,9 9,2 9,7 11,1 14,6 21,2 19,1 0 81 94 1.014 1.024 1.032   0,6 72,4 73,2
Últims 30 dies disponibles
28-01-2020 9,2     14,1     21,2 12,0 50 69 77 1.016 1.017 1.018 SO 0,0 22,5 0,0
27-01-2020 6,1     10,7     14,5 8,4 59 73 82 1.017 1.019 1.022 SO 0,1 20,9 0,0
26-01-2020 7,9     11,4     16,1 8,2 62 83 93 1.016 1.019 1.022 SO 0,0 12,9 2,8 0,36 1,20
25-01-2020 8,8     11,4     14,9 6,1 84 90 92 1.016 1.018 1.020 ONO 0,0 14,5 0,0
24-01-2020 6,3     10,3     14,1 7,8 77 87 92 1.018 1.020 1.022 OSO 0,3 27,4 0,0
23-01-2020 7,2     10,2     13,8 6,6 71 83 90 1.016 1.019 1.022 SO 0,2 27,4 0,0
22-01-2020 8,5     10,5     14,9 6,4 75 86 91 1.015 1.017 1.019 OSO 0,3 27,4 0,6
21-01-2020 8,3     11,4     14,7 6,4 88 91 94 1.014 1.017 1.021 S 9,7 61,2 20,6 0,55 2,40
20-01-2020 5,1     7,1     11,1 6,0 51 83 91 1.021 1.022 1.023 SSO 4,2 72,4 34,2 0,42 1,60
19-01-2020 7,8     9,3     11,6 3,8 0 84 91 1.014 1.017 1.021 SO 1,0 48,3 14,0 0,21 0,40
18-01-2020 7,7     11,2     14,3 6,6 57 72 86 1.017 1.025 1.030 O 0,0 20,9 0,0
17-01-2020 5,7     11,8     20,6 14,9 35 69 92 1.023 1.025 1.030 O 0,2 40,2 0,0
16-01-2020 5,3     10,4     16,4 11,1 66 82 91 1.024 1.025 1.027 O 0,0 9,7 0,0
15-01-2020 2,4     7,6     12,9 10,5 69 83 91 1.021 1.023 1.025 OSO 0,0 24,1 0,0
14-01-2020 2,1     7,4     14,1 12,0 64 82 90 1.019 1.020 1.021 OSO 0,0 12,9 0,0
13-01-2020 2,1     7,5     13,2 11,1 58 80 90 1.020 1.023 1.027 OSO 0,0 11,3 0,0
12-01-2020 2,6     8,0     15,3 12,7 50 77 90 1.027 1.028 1.029 OSO 0,0 12,9 0,0
11-01-2020 4,3     9,0     14,8 10,5 50 73 88 1.026 1.028 1.030 O 0,0 16,1 0,0
10-01-2020 7,2     10,3     12,9 5,7 0 77 91 1.021 1.024 1.027 ONO 0,0 20,9 1,0
09-01-2020 5,3     9,9     13,8 8,5 81 86 92 1.022 1.025 1.029 OSO 0,0 14,5 0,0
08-01-2020 5,1     9,6     16,8 11,7 66 84 93 1.026 1.028 1.031 ONO 0,0 6,4 0,0
07-01-2020 4,5     8,6     13,7 9,2 72 86 92 1.027 1.028 1.030 OSO 0,0 12,9 0,0
06-01-2020 6,6     10,0     16,6 10,0 66 82 88 1.026 1.027 1.029 SO 0,0 11,3 0,0
05-01-2020 5,2     9,3     15,8 10,6 58 78 89 1.025 1.027 1.029 OSO 0,0 12,9 0,0
04-01-2020 4,2     9,0     13,6 9,4 75 85 92 1.029 1.030 1.032 OSO 0,0 14,5 0,0
03-01-2020 6,3     8,9     13,1 6,8 72 83 89 1.028 1.029 1.031 NNO 0,0 9,7 0,0
02-01-2020 6,3     8,5     12,2 5,9 76 82 90 1.028 1.030 1.031 ONO 0,0 11,3 0,0
01-01-2020 6,2     8,1     11,8 5,6 73 79 84 1.029 1.030 1.032 ONO 0,0 11,3 0,0
31-12-2019 6,9     9,1     13,7 6,8 68 78 84 1.030 1.031 1.033 O 0,0 17,7 0,0
30-12-2019 7,1     10,0     15,1 8,0 67 77 82 1.030 1.031 1.032 ONO 0,0 12,9 0,0
Últims 13 mesos disponibles
11/2019 5,8 11,0 17,3 15,0 15,6 19,1 25,6 19,8 43 57 83 995 1.007 1.015 61,0 3,0
10/2019 10,4 15,8 21,1 19,9 16,6 24,1 28,6 18,2 47 68 85 1.005 1.014 1.020 39,0
09/2019 15,3 19,4 22,5 23,4 23,9 27,3 31,4 16,1 54 71 85 1.008 1.016 1.024 0,1 53,0 45,6
08/2019 19,0 21,9 26,2 25,7 26,8 29,5 31,6 12,6 53 72 80 1.009 1.014 1.018 45,0 70,2
07/2019 19,1 22,0 25,2 26,0 27,6 30,0 32,6 13,5 47 67 82 1.004 1.012 1.019 37,0 0,2
06/2019 12,3 17,5 22,5 21,3 21,0 25,1 30,7 18,4 48 68 80 1.008 1.013 1.020 S 0,2 39,0 4,4
05/2019 8,3 13,9 17,3 17,9 18,2 21,9 28,0 19,7 34 63 83 1.003 1.013 1.022 48,0 26,4
04/2019 5,1 11,1 14,9 15,0 12,1 19,0 23,0 17,9 47 66 84 997 1.011 1.023 0,3 56,0 21,8
03/2019 5,7 9,0 13,2 13,7 14,4 18,3 21,4 15,7 46 61 81 1.008 1.021 1.028 48,0 5,6
02/2019 2,3 6,2 10,8 11,0 9,3 15,8 20,9 18,6 37 69 82 991 1.022 1.032 71,0 0,0
01/2019 2,9 6,4 10,4 11,0 12,7 15,6 20,2 17,3 40 60 84 999 1.016 1.029 60,0 1,8
12/2018 4,3 8,6 12,9 12,9 13,3 17,2 24,4 20,1 52 72 90 1.007 1.023 1.029 OSO 0,1 58,0 5,2
11/2018 7,1 10,9 15,7 14,8 15,1 18,7 21,3 14,2 52 74 89 1.000 1.013 1.022 61,0 100,4
Tots els anys disponibles
2019 2,3 13,7 26,2 17,8 9,3 22,0 32,6 30,3 34 66 92 991 1.015 1.032 0,1 71,0
2018 -1,8 14,1 26,7 18,0 7,4 22,0 35,1 36,9 35 68 93 991 1.014 1.033 0,5 74,0 371,8
2017 1,2 13,9 25,2 17,9 7,3 22,0 37,3 36,1 31 67 93 993 1.017 1.034 0,0 68,0 110,4
2016 1,9 14,1 24,9 18,1 10,3 22,0 32,4 30,5 36 66 92 992 1.016 1.035 63,0 274,2
2015 1,2 12,3 27,8 16,2 8,6 20,0 31,6 30,4 33 68 94 993 1.019 1.036 88,0 296,7
Temperatura (°C)
Humitat relativa (%)
Velocitat del vent i ràfega màxima (km/h)
Direcció del vent (°)
Pressió (hPa)
Precipitació (mm)
Nota sobre les dades: s'avisa a l'usuari de la provisionalitat i no oficialitat d'aquestes dades
Logo AVAMET blanc
Web allotjada a Sollutia
Llicència de Creative CommonsLa web d'AVAMET i els seus continguts estan subjectes a una llicència de
Reconeixement - No Comercial - Compartir igual
Últimes estacions: Xixona - Els Ameradors (Soci), Agres - El Tossal (Soci), Xàbia - Bevenguts (MeteoXàbia), Llíria (Aj. Soci/Inforatge), Orihuela - Lo Capitán, Cox & Guardamar del Segura - horta (Meteorihuela), l'Alcúdia - Carriona & el Real de Gandia (Inforatge), Benicàssim - les Vil·les (Soci),  l'Alfàs del Pi - l'Albir (Soci), - - -